Time,TemperatureF,DewpointF,PressureIn,WindDirection,WindDirectionDegrees,WindSpeedMPH,WindSpeedGustMPH,Humidity,HourlyPrecipIn,Conditions,Clouds,dailyrainin,SolarRadiationWatts/m^2,SoftwareType,DateUTC
2013-03-04 00:07:00,29.3,18.0,30.00,WNW,296,0.0,0.0,64,0.00,,,0.00,0,weatherlink.com 1.10,2013-03-04 05:07:00,
2013-03-04 00:22:00,28.7,18.0,30.01,WNW,296,0.0,0.0,64,0.00,,,0.00,0,weatherlink.com 1.10,2013-03-04 05:22:00,
2013-03-04 00:37:00,28.2,18.0,30.01,WNW,296,0.0,0.0,67,0.00,,,0.00,0,weatherlink.com 1.10,2013-03-04 05:37:00,
2013-03-04 00:52:00,27.8,19.0,30.01,WNW,296,0.0,0.0,70,0.00,,,0.00,0,weatherlink.com 1.10,2013-03-04 05:52:00,
2013-03-04 01:07:00,27.5,19.0,30.01,WNW,296,0.0,0.0,71,0.00,,,0.00,0,weatherlink.com 1.10,2013-03-04 06:07:00,
2013-03-04 01:22:00,27.2,19.0,30.01,WNW,296,0.0,0.0,72,0.00,,,0.00,0,weatherlink.com 1.10,2013-03-04 06:22:00,
2013-03-04 01:37:00,26.7,20.0,30.01,WNW,296,0.0,0.0,75,0.00,,,0.00,0,weatherlink.com 1.10,2013-03-04 06:37:00,
2013-03-04 01:52:00,26.2,20.0,30.01,WNW,296,0.0,0.0,78,0.00,,,0.00,0,weatherlink.com 1.10,2013-03-04 06:52:00,
2013-03-04 02:07:00,25.8,19.0,30.02,WNW,296,0.0,0.0,75,0.00,,,0.00,0,weatherlink.com 1.10,2013-03-04 07:07:00,
2013-03-04 02:22:00,25.4,19.0,30.02,WNW,296,0.0,0.0,76,0.00,,,0.00,0,weatherlink.com 1.10,2013-03-04 07:22:00,
2013-03-04 02:37:00,25.7,19.0,30.02,WNW,297,0.0,0.0,76,0.00,,,0.00,0,weatherlink.com 1.10,2013-03-04 07:37:00,
2013-03-04 02:52:00,25.7,19.0,30.02,WNW,297,0.0,0.0,77,0.00,,,0.00,0,weatherlink.com 1.10,2013-03-04 07:52:00,
2013-03-04 03:07:00,25.5,20.0,30.03,WNW,297,0.0,0.0,79,0.00,,,0.00,0,weatherlink.com 1.10,2013-03-04 08:07:00,
2013-03-04 03:22:00,25.3,20.0,30.03,WNW,297,0.0,0.0,80,0.00,,,0.00,0,weatherlink.com 1.10,2013-03-04 08:22:00,
2013-03-04 03:37:00,24.9,19.0,30.04,WNW,297,0.0,0.0,79,0.00,,,0.00,0,weatherlink.com 1.10,2013-03-04 08:37:00,
2013-03-04 03:52:00,24.5,20.0,30.04,WNW,297,0.0,0.0,82,0.00,,,0.00,0,weatherlink.com 1.10,2013-03-04 08:52:00,
2013-03-04 04:07:00,24.3,20.0,30.04,WNW,297,0.0,0.0,82,0.00,,,0.00,0,weatherlink.com 1.10,2013-03-04 09:07:00,
2013-03-04 04:22:00,24.0,19.0,30.05,WNW,297,0.0,0.0,82,0.00,,,0.00,0,weatherlink.com 1.10,2013-03-04 09:22:00,
2013-03-04 04:37:00,23.8,19.0,30.05,WNW,297,0.0,0.0,82,0.00,,,0.00,0,weatherlink.com 1.10,2013-03-04 09:37:00,
2013-03-04 04:52:00,23.6,19.0,30.06,WNW,297,0.0,0.0,82,0.00,,,0.00,0,weatherlink.com 1.10,2013-03-04 09:52:00,
2013-03-04 05:07:00,23.1,19.0,30.07,WNW,297,0.0,0.0,83,0.00,,,0.00,0,weatherlink.com 1.10,2013-03-04 10:07:00,
2013-03-04 05:22:00,22.7,19.0,30.07,WNW,297,0.0,0.0,85,0.00,,,0.00,0,weatherlink.com 1.10,2013-03-04 10:22:00,
2013-03-04 05:37:00,22.4,19.0,30.07,WNW,297,0.0,0.0,86,0.00,,,0.00,0,weatherlink.com 1.10,2013-03-04 10:37:00,
2013-03-04 05:53:00,22.3,19.0,30.08,WNW,297,0.0,0.0,86,0.00,,,0.00,0,weatherlink.com 1.10,2013-03-04 10:53:00,
2013-03-04 06:08:00,22.2,18.0,30.09,WNW,297,0.0,0.0,85,0.00,,,0.00,0,weatherlink.com 1.10,2013-03-04 11:08:00,
2013-03-04 06:23:00,21.9,18.0,30.10,WNW,297,0.0,0.0,86,0.00,,,0.00,0,weatherlink.com 1.10,2013-03-04 11:23:00,
2013-03-04 06:38:00,21.8,18.0,30.10,WNW,297,0.0,0.0,86,0.00,,,0.00,0,weatherlink.com 1.10,2013-03-04 11:38:00,
2013-03-04 06:53:00,21.9,18.0,30.11,WNW,297,0.0,0.0,86,0.00,,,0.00,12,weatherlink.com 1.10,2013-03-04 11:53:00,
2013-03-04 07:08:00,22.2,19.0,30.11,WNW,297,0.0,0.0,87,0.00,,,0.00,21,weatherlink.com 1.10,2013-03-04 12:08:00,
2013-03-04 07:23:00,22.5,19.0,30.11,WNW,297,0.0,0.0,87,0.00,,,0.00,30,weatherlink.com 1.10,2013-03-04 12:23:00,
2013-03-04 07:38:00,23.6,21.0,30.12,WNW,297,0.0,0.0,88,0.00,,,0.00,130,weatherlink.com 1.10,2013-03-04 12:38:00,
2013-03-04 07:53:00,26.3,22.0,30.13,WNW,297,0.0,0.0,85,0.00,,,0.00,188,weatherlink.com 1.10,2013-03-04 12:53:00,
2013-03-04 08:08:00,29.0,21.0,30.14,WSW,250,0.0,6.0,71,0.00,,,0.00,229,weatherlink.com 1.10,2013-03-04 13:08:00,
2013-03-04 08:23:00,31.0,21.0,30.14,NW,304,3.0,6.0,66,0.00,,,0.00,271,weatherlink.com 1.10,2013-03-04 13:23:00,
2013-03-04 08:38:00,32.4,20.0,30.14,SW,226,5.0,5.0,60,0.00,,,0.00,322,weatherlink.com 1.10,2013-03-04 13:38:00,
2013-03-04 08:53:00,33.6,19.0,30.14,WSW,243,5.0,11.0,55,0.00,,,0.00,374,weatherlink.com 1.10,2013-03-04 13:53:00,
2013-03-04 09:08:00,34.1,19.0,30.14,West,277,3.0,8.0,54,0.00,,,0.00,422,weatherlink.com 1.10,2013-03-04 14:08:00,
2013-03-04 09:23:00,34.9,19.0,30.14,NW,309,2.0,7.0,52,0.00,,,0.00,471,weatherlink.com 1.10,2013-03-04 14:23:00,
2013-03-04 09:38:00,35.7,19.0,30.14,West,267,8.0,10.0,50,0.00,,,0.00,513,weatherlink.com 1.10,2013-03-04 14:38:00,
2013-03-04 09:53:00,35.5,18.0,30.14,SW,231,3.0,12.0,49,0.00,,,0.00,557,weatherlink.com 1.10,2013-03-04 14:53:00,
2013-03-04 10:09:00,37.1,18.0,30.14,West,280,3.0,7.0,46,0.00,,,0.00,592,weatherlink.com 1.10,2013-03-04 15:09:00,
2013-03-04 10:24:00,37.2,16.0,30.14,NNW,334,2.0,9.0,43,0.00,,,0.00,629,weatherlink.com 1.10,2013-03-04 15:24:00,
2013-03-04 10:39:00,38.8,17.0,30.14,NE,56,3.0,9.0,42,0.00,,,0.00,663,weatherlink.com 1.10,2013-03-04 15:39:00,
2013-03-04 10:54:00,39.1,18.0,30.13,NE,36,0.0,7.0,42,0.00,,,0.00,691,weatherlink.com 1.10,2013-03-04 15:54:00,
2013-03-04 11:09:00,39.7,16.0,30.13,West,275,2.0,8.0,39,0.00,,,0.00,714,weatherlink.com 1.10,2013-03-04 16:09:00,
2013-03-04 11:24:00,40.0,18.0,30.13,WNW,296,3.0,8.0,41,0.00,,,0.00,735,weatherlink.com 1.10,2013-03-04 16:24:00,
2013-03-04 11:39:00,40.4,16.0,30.12,West,277,4.0,11.0,37,0.00,,,0.00,754,weatherlink.com 1.10,2013-03-04 16:39:00,
2013-03-04 11:54:00,41.7,16.0,30.11,NNW,327,2.0,10.0,36,0.00,,,0.00,766,weatherlink.com 1.10,2013-03-04 16:54:00,
2013-03-04 12:09:00,41.7,14.0,30.11,NW,311,1.0,12.0,33,0.00,,,0.00,775,weatherlink.com 1.10,2013-03-04 17:09:00,
2013-03-04 12:24:00,42.9,16.0,30.10,WNW,296,0.0,8.0,34,0.00,,,0.00,780,weatherlink.com 1.10,2013-03-04 17:24:00,
2013-03-04 12:39:00,43.5,17.0,30.10,WNW,292,2.0,12.0,34,0.00,,,0.00,780,weatherlink.com 1.10,2013-03-04 17:39:00,
2013-03-04 12:54:00,43.5,15.0,30.09,North,360,3.0,10.0,32,0.00,,,0.00,779,weatherlink.com 1.10,2013-03-04 17:54:00,
2013-03-04 13:09:00,44.8,16.0,30.09,WNW,290,2.0,13.0,31,0.00,,,0.00,696,weatherlink.com 1.10,2013-03-04 18:09:00,
2013-03-04 13:24:00,45.8,14.0,30.08,NW,319,3.0,6.0,28,0.00,,,0.00,438,weatherlink.com 1.10,2013-03-04 18:24:00,
2013-03-04 13:39:00,45.6,16.0,30.07,NNW,342,2.0,9.0,31,0.00,,,0.00,642,weatherlink.com 1.10,2013-03-04 18:39:00,
2013-03-04 13:54:00,46.5,14.0,30.07,West,271,4.0,11.0,27,0.00,,,0.00,717,weatherlink.com 1.10,2013-03-04 18:54:00,
2013-03-04 14:09:00,46.8,15.0,30.06,ENE,78,2.0,12.0,28,0.00,,,0.00,693,weatherlink.com 1.10,2013-03-04 19:09:00,
2013-03-04 14:24:00,47.3,16.0,30.06,WNW,288,2.0,10.0,29,0.00,,,0.00,664,weatherlink.com 1.10,2013-03-04 19:24:00,
2013-03-04 14:39:00,48.6,17.0,30.06,NNE,28,4.0,9.0,28,0.00,,,0.00,559,weatherlink.com 1.10,2013-03-04 19:39:00,
2013-03-04 14:54:00,48.8,16.0,30.05,West,269,14.0,14.0,27,0.00,,,0.00,598,weatherlink.com 1.10,2013-03-04 19:54:00,
2013-03-04 15:09:00,49.4,16.0,30.05,WSW,254,2.0,8.0,26,0.00,,,0.00,559,weatherlink.com 1.10,2013-03-04 20:09:00,
2013-03-04 15:24:00,49.6,15.0,30.04,SSW,207,6.0,10.0,25,0.00,,,0.00,522,weatherlink.com 1.10,2013-03-04 20:24:00,
2013-03-04 15:39:00,49.8,15.0,30.04,West,262,3.0,7.0,25,0.00,,,0.00,422,weatherlink.com 1.10,2013-03-04 20:39:00,
2013-03-04 15:55:00,50.1,15.0,30.04,SW,225,7.0,9.0,25,0.00,,,0.00,429,weatherlink.com 1.10,2013-03-04 20:55:00,
2013-03-04 16:10:00,50.5,15.0,30.04,SW,225,7.0,10.0,24,0.00,,,0.00,380,weatherlink.com 1.10,2013-03-04 21:10:00,
2013-03-04 16:25:00,50.6,17.0,30.04,WNW,291,1.0,9.0,26,0.00,,,0.00,329,weatherlink.com 1.10,2013-03-04 21:25:00,
2013-03-04 16:40:00,51.5,17.0,30.05,West,273,1.0,5.0,25,0.00,,,0.00,276,weatherlink.com 1.10,2013-03-04 21:40:00,
2013-03-04 16:55:00,51.3,14.0,30.05,West,263,4.0,7.0,23,0.00,,,0.00,221,weatherlink.com 1.10,2013-03-04 21:55:00,
2013-03-04 17:10:00,50.6,14.0,30.05,SW,216,3.0,9.0,23,0.00,,,0.00,160,weatherlink.com 1.10,2013-03-04 22:10:00,
2013-03-04 17:25:00,50.8,15.0,30.05,WSW,257,6.0,7.0,24,0.00,,,0.00,102,weatherlink.com 1.10,2013-03-04 22:25:00,
2013-03-04 17:40:00,50.2,15.0,30.06,West,259,1.0,8.0,25,0.00,,,0.00,47,weatherlink.com 1.10,2013-03-04 22:40:00,
2013-03-04 17:55:00,49.1,16.0,30.07,SW,232,1.0,6.0,27,0.00,,,0.00,18,weatherlink.com 1.10,2013-03-04 22:55:00,
2013-03-04 18:10:00,48.2,17.0,30.06,WSW,247,0.0,1.0,29,0.00,,,0.00,7,weatherlink.com 1.10,2013-03-04 23:10:00,
2013-03-04 18:25:00,46.5,19.0,30.07,WSW,247,0.0,0.0,33,0.00,,,0.00,0,weatherlink.com 1.10,2013-03-04 23:25:00,
2013-03-04 18:40:00,44.2,20.0,30.07,WSW,247,0.0,0.0,38,0.00,,,0.00,0,weatherlink.com 1.10,2013-03-04 23:40:00,
2013-03-04 18:55:00,42.0,21.0,30.07,WSW,247,0.0,0.0,44,0.00,,,0.00,0,weatherlink.com 1.10,2013-03-04 23:55:00,
2013-03-04 19:10:00,40.2,23.0,30.07,WSW,247,0.0,0.0,51,0.00,,,0.00,0,weatherlink.com 1.10,2013-03-05 00:10:00,
2013-03-04 19:25:00,39.1,24.0,30.07,WSW,247,0.0,1.0,54,0.00,,,0.00,0,weatherlink.com 1.10,2013-03-05 00:25:00,
2013-03-04 19:40:00,37.6,22.0,30.08,WSW,247,0.0,0.0,54,0.00,,,0.00,0,weatherlink.com 1.10,2013-03-05 00:40:00,
2013-03-04 19:55:00,36.4,23.0,30.08,WSW,247,0.0,0.0,58,0.00,,,0.00,0,weatherlink.com 1.10,2013-03-05 00:55:00,
2013-03-04 20:10:00,35.6,21.0,30.09,WSW,247,0.0,0.0,55,0.00,,,0.00,0,weatherlink.com 1.10,2013-03-05 01:10:00,
2013-03-04 20:25:00,34.5,24.0,30.09,WSW,247,0.0,1.0,65,0.00,,,0.00,0,weatherlink.com 1.10,2013-03-05 01:25:00,
2013-03-04 20:40:00,33.8,23.0,30.09,WSW,247,0.0,0.0,64,0.00,,,0.00,0,weatherlink.com 1.10,2013-03-05 01:40:00,
2013-03-04 20:55:00,33.3,21.0,30.09,WSW,247,0.0,0.0,62,0.00,,,0.00,0,weatherlink.com 1.10,2013-03-05 01:55:00,
2013-03-04 21:10:00,32.9,24.0,30.09,WSW,247,0.0,0.0,69,0.00,,,0.00,0,weatherlink.com 1.10,2013-03-05 02:10:00,
2013-03-04 21:25:00,32.3,23.0,30.09,WSW,247,0.0,0.0,69,0.00,,,0.00,0,weatherlink.com 1.10,2013-03-05 02:25:00,
2013-03-04 21:40:00,32.1,23.0,30.09,WSW,247,0.0,0.0,70,0.00,,,0.00,0,weatherlink.com 1.10,2013-03-05 02:40:00,
2013-03-04 21:55:00,31.6,23.0,30.10,WSW,247,0.0,0.0,71,0.00,,,0.00,0,weatherlink.com 1.10,2013-03-05 02:55:00,
2013-03-04 22:10:00,31.2,23.0,30.10,WSW,247,0.0,0.0,73,0.00,,,0.00,0,weatherlink.com 1.10,2013-03-05 03:10:00,
2013-03-04 22:25:00,31.1,23.0,30.10,WSW,247,0.0,0.0,73,0.00,,,0.00,0,weatherlink.com 1.10,2013-03-05 03:25:00,
2013-03-04 22:40:00,31.0,24.0,30.10,WSW,247,0.0,0.0,75,0.00,,,0.00,0,weatherlink.com 1.10,2013-03-05 03:40:00,
2013-03-04 22:55:00,31.2,25.0,30.10,WSW,247,0.0,0.0,79,0.00,,,0.00,0,weatherlink.com 1.10,2013-03-05 03:55:00,
2013-03-04 23:10:00,31.4,25.0,30.10,WSW,247,0.0,0.0,77,0.00,,,0.00,0,weatherlink.com 1.10,2013-03-05 04:10:00,
2013-03-04 23:25:00,31.8,25.0,30.10,WSW,247,0.0,0.0,75,0.00,,,0.00,0,weatherlink.com 1.10,2013-03-05 04:25:00,
2013-03-04 23:40:00,31.9,25.0,30.10,WSW,247,0.0,0.0,77,0.00,,,0.00,0,weatherlink.com 1.10,2013-03-05 04:40:00,
2013-03-04 23:55:00,31.7,25.0,30.10,WSW,247,0.0,0.0,77,0.00,,,0.00,0,weatherlink.com 1.10,2013-03-05 04:55:00,